createdAt,value
2023-02-14T00:01:28.934Z,2.40
2023-02-14T00:04:00.876Z,2.40
2023-02-14T00:06:29.730Z,2.40
2023-02-14T00:08:57.726Z,2.40
2023-02-14T00:11:25.785Z,2.40
2023-02-14T00:14:11.268Z,2.40
2023-02-14T00:16:40.660Z,2.40
2023-02-14T00:19:08.883Z,2.40
2023-02-14T00:21:38.095Z,2.30
2023-02-14T00:24:06.893Z,2.30
2023-02-14T00:26:35.070Z,2.20
2023-02-14T00:29:02.971Z,2.20
2023-02-14T00:31:30.952Z,2.20
2023-02-14T00:34:00.347Z,2.10
2023-02-14T00:36:28.436Z,2.10
2023-02-14T00:42:18.669Z,2.10
2023-02-14T00:44:46.676Z,2.00
2023-02-14T00:47:14.600Z,2.00
2023-02-14T00:49:43.905Z,2.00
2023-02-14T00:52:12.068Z,2.00
2023-02-14T00:54:40.097Z,1.90
2023-02-14T00:57:08.195Z,1.90
2023-02-14T00:59:36.112Z,1.90
2023-02-14T01:02:04.200Z,1.90
2023-02-14T01:04:32.211Z,1.90
2023-02-14T01:07:01.485Z,1.90
2023-02-14T01:09:29.641Z,1.90
2023-02-14T01:11:57.562Z,1.90
2023-02-14T01:14:26.852Z,1.90
2023-02-14T01:19:42.501Z,1.80
2023-02-14T01:41:45.780Z,1.50
2023-02-14T01:44:47.140Z,1.50
2023-02-14T01:47:15.497Z,1.50
2023-02-14T01:49:48.447Z,1.50
2023-02-14T01:52:20.927Z,1.50
2023-02-14T01:54:53.577Z,1.40
2023-02-14T01:57:24.290Z,1.40
2023-02-14T02:00:17.346Z,1.40
2023-02-14T02:02:45.420Z,1.40
2023-02-14T02:05:14.032Z,1.40
2023-02-14T02:07:42.833Z,1.30
2023-02-14T02:10:12.798Z,1.30
2023-02-14T02:12:41.651Z,1.30
2023-02-14T02:15:10.168Z,1.40
2023-02-14T02:17:48.526Z,1.50
2023-02-14T02:20:53.026Z,1.60
2023-02-14T02:23:45.277Z,1.60
2023-02-14T02:26:42.926Z,1.60
2023-02-14T02:29:32.014Z,1.60
2023-02-14T02:32:34.457Z,1.70
2023-02-14T02:35:33.646Z,1.70
2023-02-14T02:38:19.062Z,1.80
2023-02-14T02:40:53.993Z,1.70
2023-02-14T02:43:39.580Z,1.70
2023-02-14T02:46:44.624Z,1.80
2023-02-14T02:49:36.583Z,1.60
2023-02-14T02:52:26.489Z,1.60
2023-02-14T02:55:00.437Z,1.60
2023-02-14T02:57:32.572Z,1.60
2023-02-14T03:00:01.762Z,1.60
2023-02-14T03:02:32.863Z,1.60
2023-02-14T03:05:05.451Z,1.60
2023-02-14T03:07:37.497Z,1.60
2023-02-14T03:10:09.343Z,1.50
2023-02-14T03:13:26.226Z,1.50
2023-02-14T03:16:20.263Z,1.50
2023-02-14T03:19:09.283Z,1.40
2023-02-14T03:21:45.460Z,1.30
2023-02-14T03:24:25.022Z,1.20
2023-02-14T03:27:01.160Z,1.20
2023-02-14T03:29:35.482Z,1.10
2023-02-14T03:32:22.849Z,1.10
2023-02-14T03:34:58.118Z,1.10
2023-02-14T03:37:30.652Z,1.20
2023-02-14T03:40:07.441Z,1.20
2023-02-14T03:42:38.537Z,1.20
2023-02-14T03:45:10.547Z,1.10
2023-02-14T03:47:41.836Z,1.00
2023-02-14T03:50:14.748Z,1.00
2023-02-14T03:52:44.484Z,0.90
2023-02-14T03:55:18.099Z,0.90
2023-02-14T03:57:54.083Z,0.80
2023-02-14T04:00:22.138Z,0.80
2023-02-14T04:02:54.717Z,0.80
2023-02-14T04:05:25.538Z,0.70
2023-02-14T04:07:54.986Z,0.70
2023-02-14T04:10:25.243Z,0.70
2023-02-14T04:12:53.471Z,0.70
2023-02-14T04:15:21.332Z,0.70
2023-02-14T04:18:06.886Z,0.70
2023-02-14T04:20:35.105Z,0.70
2023-02-14T04:23:03.680Z,0.70
2023-02-14T04:25:33.133Z,0.70
2023-02-14T04:28:01.009Z,0.70
2023-02-14T04:30:28.964Z,0.70
2023-02-14T04:32:56.912Z,0.70
2023-02-14T04:35:24.816Z,0.70
2023-02-14T04:37:52.776Z,0.70
2023-02-14T04:40:21.031Z,0.80
2023-02-14T04:42:50.280Z,0.80
2023-02-14T04:45:18.313Z,0.80
2023-02-14T04:47:46.227Z,0.80
2023-02-14T04:50:14.741Z,0.80
2023-02-14T04:52:42.823Z,0.90
2023-02-14T04:55:11.035Z,0.90
2023-02-14T04:57:38.878Z,0.90
2023-02-14T05:00:11.088Z,0.90
2023-02-14T05:02:39.014Z,0.90
2023-02-14T05:05:07.767Z,0.90
2023-02-14T05:07:35.984Z,0.90
2023-02-14T05:10:04.788Z,1.00
2023-02-14T05:12:32.732Z,1.00
2023-02-14T05:15:00.649Z,1.00
2023-02-14T05:17:30.144Z,1.00
2023-02-14T05:19:58.198Z,1.00
2023-02-14T05:22:26.105Z,0.90
2023-02-14T05:24:54.007Z,1.00
2023-02-14T05:27:21.928Z,1.00
2023-02-14T05:29:49.890Z,1.10
2023-02-14T05:32:17.883Z,1.00
2023-02-14T05:34:47.189Z,1.10
2023-02-14T05:37:15.045Z,1.10
2023-02-14T05:39:42.944Z,1.10
2023-02-14T05:42:10.812Z,1.20
2023-02-14T05:44:38.712Z,1.20
2023-02-14T05:47:06.848Z,1.10
2023-02-14T05:49:36.043Z,1.20
2023-02-14T05:52:05.579Z,1.20
2023-02-14T05:54:33.537Z,1.30
2023-02-14T05:57:01.609Z,1.30
2023-02-14T05:59:29.513Z,1.30
2023-02-14T06:01:57.451Z,1.30
2023-02-14T06:04:25.628Z,1.30
2023-02-14T06:06:53.795Z,1.30
2023-02-14T06:09:23.110Z,1.30
2023-02-14T06:11:51.057Z,1.30
2023-02-14T06:14:19.111Z,1.30
2023-02-14T06:16:47.261Z,1.30
2023-02-14T06:19:15.192Z,1.30
2023-02-14T06:21:43.081Z,1.30
2023-02-14T06:24:11.069Z,1.30
2023-02-14T06:26:40.298Z,1.40
2023-02-14T06:29:08.580Z,1.40
2023-02-14T06:31:36.692Z,1.40
2023-02-14T06:34:04.725Z,1.40
2023-02-14T06:36:32.678Z,1.40
2023-02-14T06:39:00.652Z,1.40
2023-02-14T06:41:28.605Z,1.40
2023-02-14T06:43:57.842Z,1.50
2023-02-14T06:46:25.937Z,1.50
2023-02-14T06:48:53.914Z,1.50
2023-02-14T06:51:22.092Z,1.60
2023-02-14T06:53:52.703Z,1.60
2023-02-14T06:56:20.624Z,1.60
2023-02-14T06:58:48.750Z,1.60
2023-02-14T07:01:18.095Z,1.60
2023-02-14T07:03:46.870Z,1.70
2023-02-14T07:06:14.905Z,1.70
2023-02-14T07:08:43.308Z,1.70
2023-02-14T07:11:11.251Z,1.60
2023-02-14T07:13:39.157Z,1.60
2023-02-14T07:16:07.710Z,1.70
2023-02-14T07:18:37.009Z,1.70
2023-02-14T07:21:05.127Z,1.70
2023-02-14T07:23:33.365Z,1.70
2023-02-14T07:26:01.424Z,1.70
2023-02-14T07:28:30.381Z,1.70
2023-02-14T07:31:01.611Z,1.80
2023-02-14T07:33:29.814Z,1.80
2023-02-14T07:35:59.112Z,1.70
2023-02-14T07:38:30.486Z,1.80
2023-02-14T07:40:58.822Z,1.70
2023-02-14T07:43:26.999Z,1.70
2023-02-14T07:45:55.128Z,1.80
2023-02-14T07:48:23.388Z,1.80
2023-02-14T07:50:51.296Z,1.80
2023-02-14T07:53:20.598Z,1.80
2023-02-14T07:55:50.787Z,1.80
2023-02-14T07:58:18.700Z,1.80
2023-02-14T08:00:47.339Z,1.80
2023-02-14T08:03:16.381Z,1.80
2023-02-14T08:05:44.717Z,1.80
2023-02-14T08:08:12.899Z,1.80
2023-02-14T08:10:42.211Z,1.80
2023-02-14T08:13:10.105Z,1.80
2023-02-14T08:15:55.614Z,1.80
2023-02-14T08:18:24.073Z,1.80
2023-02-14T08:20:52.540Z,1.80
2023-02-14T08:23:21.842Z,1.80
2023-02-14T08:25:53.347Z,1.80
2023-02-14T08:28:21.896Z,1.90
2023-02-14T08:30:50.342Z,1.90
2023-02-14T08:33:18.983Z,1.90
2023-02-14T08:35:47.168Z,1.90
2023-02-14T08:38:15.155Z,1.90
2023-02-14T08:40:43.116Z,2.00
2023-02-14T08:43:12.751Z,2.00
2023-02-14T08:45:41.725Z,1.90
2023-02-14T08:48:11.425Z,1.90
2023-02-14T08:50:40.386Z,1.90
2023-02-14T08:53:09.468Z,2.00
2023-02-14T08:55:37.813Z,2.00
2023-02-14T08:58:06.256Z,2.00
2023-02-14T09:00:36.005Z,1.90
2023-02-14T09:03:04.172Z,2.00
2023-02-14T09:05:32.220Z,2.00
2023-02-14T09:08:00.146Z,2.00
2023-02-14T09:10:28.477Z,2.10
2023-02-14T09:12:56.527Z,2.00
2023-02-14T09:15:24.756Z,2.00
2023-02-14T09:17:54.196Z,2.10
2023-02-14T09:20:22.595Z,2.00
2023-02-14T09:22:50.609Z,2.10
2023-02-14T09:25:18.732Z,2.00
2023-02-14T09:27:46.659Z,2.10
2023-02-14T09:30:16.116Z,2.10
2023-02-14T09:32:44.006Z,2.00
2023-02-14T09:35:13.293Z,2.10
2023-02-14T09:37:58.436Z,2.10
2023-02-14T09:40:26.758Z,2.10
2023-02-14T09:43:03.917Z,2.20
2023-02-14T09:45:34.041Z,2.20
2023-02-14T09:48:06.476Z,2.20
2023-02-14T09:50:40.734Z,2.30
2023-02-14T09:53:19.629Z,2.30
2023-02-14T09:55:53.261Z,2.30
2023-02-14T09:58:27.862Z,2.30
2023-02-14T10:01:00.442Z,2.30
2023-02-14T10:04:07.421Z,2.30
2023-02-14T10:06:48.445Z,2.30
2023-02-14T10:09:37.752Z,2.30
2023-02-14T10:12:11.966Z,2.30
2023-02-14T10:14:41.022Z,2.30
2023-02-14T10:17:15.994Z,2.30
2023-02-14T10:19:49.811Z,2.30
2023-02-14T10:22:22.934Z,2.30
2023-02-14T10:24:55.177Z,2.30
2023-02-14T10:27:33.587Z,2.30
2023-02-14T10:30:02.727Z,2.30
2023-02-14T10:32:39.340Z,2.30
2023-02-14T10:35:17.191Z,2.40
2023-02-14T10:37:56.771Z,2.40
2023-02-14T10:40:42.538Z,2.40
2023-02-14T10:43:21.738Z,2.50
2023-02-14T10:45:57.030Z,2.50
2023-02-14T10:48:34.638Z,2.60
2023-02-14T10:51:12.308Z,2.60
2023-02-14T10:53:54.533Z,2.60
2023-02-14T10:56:27.495Z,2.60
2023-02-14T10:58:57.650Z,2.60
2023-02-14T11:01:26.123Z,2.60
2023-02-14T11:03:58.460Z,2.60
2023-02-14T11:06:26.437Z,2.60
2023-02-14T11:08:57.376Z,2.70
2023-02-14T11:11:31.265Z,2.70
2023-02-14T11:13:59.203Z,2.80
2023-02-14T11:16:32.505Z,2.90
2023-02-14T11:19:19.392Z,3.00
2023-02-14T11:21:50.592Z,3.00
2023-02-14T11:24:25.962Z,3.00
2023-02-14T11:26:56.977Z,2.90
2023-02-14T11:29:29.584Z,2.90
2023-02-14T11:31:58.058Z,2.90
2023-02-14T11:34:39.915Z,2.80
2023-02-14T11:37:26.013Z,2.90
2023-02-14T11:39:57.926Z,2.90
2023-02-14T11:42:42.794Z,2.90
2023-02-14T11:45:29.181Z,2.90
2023-02-14T11:48:19.933Z,2.90
2023-02-14T11:50:59.072Z,3.00
2023-02-14T11:53:30.202Z,3.00
2023-02-14T11:56:00.785Z,3.10
2023-02-14T11:58:35.662Z,3.10
2023-02-14T12:01:04.168Z,3.10
2023-02-14T12:03:40.419Z,3.10
2023-02-14T12:06:08.475Z,3.20
2023-02-14T12:08:39.035Z,3.20
2023-02-14T12:11:20.452Z,3.20
2023-02-14T12:13:53.644Z,3.10
2023-02-14T12:16:28.763Z,3.10
2023-02-14T12:19:01.831Z,3.10
2023-02-14T12:21:44.920Z,3.20
2023-02-14T12:24:19.537Z,3.20
2023-02-14T12:27:01.560Z,3.30
2023-02-14T12:29:34.839Z,3.40
2023-02-14T12:32:13.663Z,3.40
2023-02-14T12:34:41.882Z,3.30
2023-02-14T12:37:18.834Z,3.20
2023-02-14T12:40:09.184Z,3.10
2023-02-14T12:42:51.200Z,3.10
2023-02-14T12:45:27.138Z,3.10
2023-02-14T12:48:04.310Z,3.20
2023-02-14T12:50:45.072Z,3.40
2023-02-14T12:53:49.048Z,3.40
2023-02-14T12:56:26.760Z,3.30
2023-02-14T12:59:07.964Z,3.30
2023-02-14T13:01:57.879Z,3.30
2023-02-14T13:04:55.809Z,3.40
2023-02-14T13:07:44.727Z,3.40
2023-02-14T13:10:23.911Z,3.50
2023-02-14T13:13:00.417Z,3.60
2023-02-14T13:15:40.053Z,3.60
2023-02-14T13:18:15.998Z,3.70
2023-02-14T13:20:56.803Z,3.80
2023-02-14T13:23:29.953Z,3.80
2023-02-14T13:26:02.427Z,3.80
2023-02-14T13:28:31.896Z,3.90
2023-02-14T13:31:04.794Z,4.10
2023-02-14T13:33:36.356Z,4.00
2023-02-14T13:36:08.925Z,4.00
2023-02-14T13:38:42.922Z,4.00
2023-02-14T13:41:11.714Z,3.90
2023-02-14T13:43:54.979Z,3.70
2023-02-14T13:46:48.993Z,3.60
2023-02-14T13:49:39.920Z,3.50
2023-02-14T13:52:08.042Z,3.60
2023-02-14T13:54:47.760Z,3.60
2023-02-14T13:57:31.499Z,3.60
2023-02-14T14:00:42.661Z,3.70
2023-02-14T14:03:16.872Z,3.70
2023-02-14T14:06:02.281Z,3.60
2023-02-14T14:08:45.291Z,3.70
2023-02-14T14:11:29.865Z,3.60
2023-02-14T14:14:03.291Z,3.70
2023-02-14T14:16:35.005Z,3.70
2023-02-14T14:19:11.614Z,3.70
2023-02-14T14:21:43.535Z,3.70
2023-02-14T14:24:22.711Z,3.80
2023-02-14T14:26:52.616Z,4.00
2023-02-14T14:29:26.840Z,4.00
2023-02-14T14:31:56.395Z,4.10
2023-02-14T14:34:27.851Z,4.00
2023-02-14T14:37:06.746Z,4.00
2023-02-14T14:39:39.763Z,4.10
2023-02-14T14:42:09.742Z,3.90
2023-02-14T14:44:45.745Z,3.90
2023-02-14T14:47:19.061Z,3.80
2023-02-14T14:49:48.934Z,3.80
2023-02-14T14:52:33.742Z,3.70
2023-02-14T14:55:04.262Z,3.70
2023-02-14T14:57:32.474Z,3.70
2023-02-14T15:00:17.767Z,3.60
2023-02-14T15:02:57.432Z,3.60
2023-02-14T15:05:29.345Z,3.60
2023-02-14T15:07:58.343Z,3.60
2023-02-14T15:10:31.723Z,3.60
2023-02-14T15:13:32.566Z,3.60
2023-02-14T15:16:03.793Z,3.50
2023-02-14T15:18:32.070Z,3.50
2023-02-14T15:21:02.535Z,3.50
2023-02-14T15:23:30.800Z,3.50
2023-02-14T15:25:58.690Z,3.50
2023-02-14T15:28:30.860Z,3.50
2023-02-14T15:31:01.625Z,3.60
2023-02-14T15:33:31.149Z,3.60
2023-02-14T15:36:03.294Z,3.60
2023-02-14T15:38:34.017Z,3.50
2023-02-14T15:41:02.727Z,3.50
2023-02-14T15:43:32.558Z,3.50
2023-02-14T15:46:14.104Z,3.40
2023-02-14T15:48:42.714Z,3.40
2023-02-14T15:51:19.996Z,3.40
2023-02-14T15:53:53.244Z,3.40
2023-02-14T15:56:24.813Z,3.30
2023-02-14T15:59:00.512Z,3.40
2023-02-14T16:01:28.944Z,3.40
2023-02-14T16:04:00.313Z,3.40
2023-02-14T16:06:36.537Z,3.40
2023-02-14T16:09:07.100Z,3.40
2023-02-14T16:11:37.265Z,3.30
2023-02-14T16:14:29.806Z,3.30
2023-02-14T16:16:59.405Z,3.30
2023-02-14T16:19:39.363Z,3.30
2023-02-14T16:22:10.708Z,3.40
2023-02-14T16:24:38.594Z,3.30
2023-02-14T16:27:13.372Z,3.40
2023-02-14T16:29:41.497Z,3.40
2023-02-14T16:32:16.488Z,3.30
2023-02-14T16:34:47.315Z,3.30
2023-02-14T16:37:22.974Z,3.30
2023-02-14T16:39:52.319Z,3.30
2023-02-14T16:42:20.243Z,3.30
2023-02-14T16:44:48.687Z,3.30
2023-02-14T16:47:18.805Z,3.30
2023-02-14T16:49:47.386Z,3.30
2023-02-14T16:52:17.900Z,3.20
2023-02-14T16:54:47.055Z,3.20
2023-02-14T16:57:19.751Z,3.20
2023-02-14T16:59:48.016Z,3.20
2023-02-14T17:02:16.496Z,3.20
2023-02-14T17:04:44.824Z,3.20
2023-02-14T17:07:16.240Z,3.10
2023-02-14T17:09:49.146Z,3.10
2023-02-14T17:12:22.224Z,3.10
2023-02-14T17:14:54.682Z,3.10
2023-02-14T17:17:22.859Z,3.10
2023-02-14T17:19:52.712Z,3.00
2023-02-14T17:22:21.372Z,3.00
2023-02-14T17:24:50.670Z,3.00
2023-02-14T17:27:19.937Z,3.00
2023-02-14T17:29:47.817Z,3.00
2023-02-14T17:32:16.240Z,2.90
2023-02-14T17:34:44.901Z,2.90
2023-02-14T17:37:13.042Z,2.90
2023-02-14T17:39:41.091Z,2.90
2023-02-14T17:42:12.032Z,2.90
2023-02-14T17:44:40.340Z,2.90
2023-02-14T17:47:08.262Z,2.80
2023-02-14T17:49:36.119Z,2.80
2023-02-14T17:52:04.060Z,2.80
2023-02-14T17:54:32.032Z,2.80
2023-02-14T17:56:59.964Z,2.80
2023-02-14T17:59:29.225Z,2.80
2023-02-14T18:01:57.191Z,2.80
2023-02-14T18:04:25.458Z,2.80
2023-02-14T18:06:53.433Z,2.80
2023-02-14T18:09:21.746Z,2.80
2023-02-14T18:11:50.426Z,2.80
2023-02-14T18:14:18.368Z,2.80
2023-02-14T18:16:47.705Z,2.80
2023-02-14T18:19:16.942Z,2.80
2023-02-14T18:21:46.232Z,2.80
2023-02-14T18:24:15.535Z,2.80
2023-02-14T18:26:44.454Z,2.90
2023-02-14T18:29:12.775Z,2.80
2023-02-14T18:31:42.666Z,2.80
2023-02-14T18:34:12.296Z,2.80
2023-02-14T18:36:42.189Z,2.80
2023-02-14T18:39:10.904Z,2.80
2023-02-14T18:41:38.864Z,2.70
2023-02-14T18:44:06.954Z,2.70
2023-02-14T18:46:36.709Z,2.70
2023-02-14T18:49:08.269Z,2.70
2023-02-14T18:51:39.618Z,2.70
2023-02-14T18:54:08.226Z,2.70
2023-02-14T18:56:38.178Z,2.70
2023-02-14T18:59:08.312Z,2.70
2023-02-14T19:01:39.898Z,2.70
2023-02-14T19:04:09.175Z,2.70
2023-02-14T19:06:40.522Z,2.70
2023-02-14T19:09:10.323Z,2.70
2023-02-14T19:11:38.491Z,2.70
2023-02-14T19:14:10.051Z,2.70
2023-02-14T19:16:40.937Z,2.70
2023-02-14T19:19:08.982Z,2.70
2023-02-14T19:21:38.316Z,2.70
2023-02-14T19:24:07.886Z,2.70
2023-02-14T19:26:40.010Z,2.70
2023-02-14T19:29:10.919Z,2.70
2023-02-14T19:31:41.050Z,2.70
2023-02-14T19:34:15.829Z,2.70
2023-02-14T19:36:45.096Z,2.70
2023-02-14T19:39:14.062Z,2.70
2023-02-14T19:41:42.269Z,2.70
2023-02-14T19:44:13.727Z,2.70
2023-02-14T19:46:42.841Z,2.70
2023-02-14T19:49:14.330Z,2.70
2023-02-14T19:51:44.707Z,2.70
2023-02-14T19:54:13.443Z,2.70
2023-02-14T19:56:43.534Z,2.70
2023-02-14T19:59:15.126Z,2.70
2023-02-14T20:01:46.225Z,2.70
2023-02-14T20:04:16.414Z,2.70
2023-02-14T20:06:46.601Z,2.70
2023-02-14T20:09:15.632Z,2.70
2023-02-14T20:11:49.988Z,2.70
2023-02-14T20:14:19.784Z,2.70
2023-02-14T20:16:48.507Z,2.70
2023-02-14T20:19:19.253Z,2.70
2023-02-14T20:21:50.098Z,2.70
2023-02-14T20:24:20.751Z,2.70
2023-02-14T20:26:49.687Z,2.70
2023-02-14T20:29:18.799Z,2.70
2023-02-14T20:31:48.417Z,2.70
2023-02-14T20:34:16.878Z,2.80
2023-02-14T20:36:45.862Z,2.80
2023-02-14T20:39:15.375Z,2.80
2023-02-14T20:41:48.360Z,2.70
2023-02-14T20:44:19.690Z,2.80
2023-02-14T20:46:47.623Z,2.70
2023-02-14T20:49:15.980Z,2.70
2023-02-14T20:51:44.432Z,2.70
2023-02-14T20:54:12.300Z,2.70
2023-02-14T20:56:41.795Z,2.60
2023-02-14T20:59:11.676Z,2.70
2023-02-14T21:01:40.136Z,2.70
2023-02-14T21:04:08.283Z,2.60
2023-02-14T21:06:39.565Z,2.60
2023-02-14T21:09:08.571Z,2.60
2023-02-14T21:11:36.776Z,2.60
2023-02-14T21:14:06.123Z,2.70
2023-02-14T21:16:34.076Z,2.70
2023-02-14T21:19:02.053Z,2.60
2023-02-14T21:21:34.783Z,2.70
2023-02-14T21:24:04.687Z,2.70
2023-02-14T21:26:32.678Z,2.70
2023-02-14T21:29:00.622Z,2.60
2023-02-14T21:31:30.142Z,2.60
2023-02-14T21:33:59.810Z,2.60
2023-02-14T21:36:30.159Z,2.60
2023-02-14T21:38:59.436Z,2.60
2023-02-14T21:41:28.843Z,2.60
2023-02-14T21:43:57.346Z,2.60
2023-02-14T21:46:27.683Z,2.60
2023-02-14T21:49:14.872Z,2.60
2023-02-14T21:51:43.417Z,2.60
2023-02-14T21:54:12.551Z,2.60
2023-02-14T21:56:41.235Z,2.60
2023-02-14T21:59:09.959Z,2.60
2023-02-14T22:01:39.712Z,2.60
2023-02-14T22:04:10.767Z,2.60
2023-02-14T22:06:40.101Z,2.60
2023-02-14T22:09:08.593Z,2.60
2023-02-14T22:11:36.624Z,2.60
2023-02-14T22:14:04.951Z,2.50
2023-02-14T22:16:32.885Z,2.50
2023-02-14T22:19:00.714Z,2.50
2023-02-14T22:21:33.356Z,2.50
2023-02-14T22:24:02.091Z,2.40
2023-02-14T22:26:33.661Z,2.40
2023-02-14T22:29:03.007Z,2.40
2023-02-14T22:31:35.847Z,2.40
2023-02-14T22:34:04.373Z,2.40
2023-02-14T22:36:33.816Z,2.40
2023-02-14T22:39:02.002Z,2.40
2023-02-14T22:41:30.060Z,2.40
2023-02-14T22:43:58.248Z,2.40
2023-02-14T22:46:28.287Z,2.40
2023-02-14T22:48:57.626Z,2.30
2023-02-14T22:51:27.972Z,2.30
2023-02-14T22:53:59.756Z,2.30
2023-02-14T22:56:29.486Z,2.30
2023-02-14T22:58:58.847Z,2.30
2023-02-14T23:01:27.741Z,2.20
2023-02-14T23:03:57.042Z,2.30
2023-02-14T23:06:25.334Z,2.30
2023-02-14T23:08:53.967Z,2.30
2023-02-14T23:11:24.970Z,2.30
2023-02-14T23:14:10.836Z,2.30
2023-02-14T23:16:56.233Z,2.30
2023-02-14T23:19:43.662Z,2.40
2023-02-14T23:22:14.119Z,2.40
2023-02-14T23:24:42.475Z,2.30
2023-02-14T23:27:11.769Z,2.30
2023-02-14T23:29:39.693Z,2.30
2023-02-14T23:32:08.625Z,2.30
2023-02-14T23:34:39.440Z,2.30
2023-02-14T23:37:08.146Z,2.40
2023-02-14T23:39:37.589Z,2.30
2023-02-14T23:42:06.967Z,2.30
2023-02-14T23:44:36.750Z,2.30
2023-02-14T23:47:07.053Z,2.30
2023-02-14T23:49:36.324Z,2.40
2023-02-14T23:52:06.415Z,2.30
2023-02-14T23:54:34.795Z,2.30
2023-02-14T23:57:03.449Z,2.40
2023-02-14T23:59:31.535Z,2.30
